YMML/MEL METAR and TAF weather

Enter ICAO airport designator
Station Type Date Time Source
YMML METAR 2022/10/01 07:30 UTC NOAA

YMML 010730Z 20007KT CAVOK 16/06 Q1020


Station Type Date Time Source
YMML Decoded METAR 2022/10/01 07:30 UTC NOAA

Melbourne Airport, Australia (YMML) 37-40S 144-50E 141M
Oct 01, 2022 - 03:30 AM EDT / 2022.10.01 0730 UTC
Wind: from the SSW (200 degrees) at 8 MPH (7 KT):0
Visibility: greater than 7 mile(s):0
Temperature: 60 F (16 C)
Dew Point: 42 F (6 C)
Relative Humidity: 51%
Pressure (altimeter): 30.12 in. Hg (1020 hPa)
ob: YMML 010730Z 20007KT CAVOK 16/06 Q1020
cycle: 7

Station Type Date Time Source
YMML TAF 2022/10/01 06:40 UTC NOAA

TAF YMML 010515Z 0106/0212 19010KT CAVOK
FM011000 27005KT CAVOK
FM011600 34005KT CAVOK
FM020000 20010KT CAVOK

Example: see airport list